Germantown, Maryland
Current Conditions -  °F | °C
As of 1:35 PM on Thursday 27 Nov 2014 (Local Time) from KGAI Reporting Station
Broken Clouds Broken Clouds  
Wind Chill: 39°   Ceiling: 7000
Heat Index: 43°   Visibility: 10mi
Dew Point: 30°   Wind: 7mph
Humidity: 61%   Direction: 320°NW
Pressure: 30.06"   Gusts: NA
Location:  39.18°N, 77.27°W
Report Text: KGAI 271835Z 32006KT 10SM FEW034 SCT042 BKN070 06/M01 A3006 RMK AO1
Loading
Personal Weather Stations






























Interactive Weather Map New forecast layout! Learn more

10-Day Weather Forecast

Advertisements
Track Severe Weather on mobile